createdAt,value
2023-04-18T00:00:07.778Z,139.69
2023-04-18T00:01:07.751Z,141.79
2023-04-18T00:02:07.811Z,139.32
2023-04-18T00:03:07.894Z,137.09
2023-04-18T00:04:07.925Z,142.16
2023-04-18T00:05:07.828Z,142.06
2023-04-18T00:06:07.741Z,137.83
2023-04-18T00:07:07.767Z,140.47
2023-04-18T00:08:07.728Z,139.65
2023-04-18T00:09:07.817Z,134.08
2023-04-18T00:10:07.709Z,136.63
2023-04-18T00:11:07.710Z,139.39
2023-04-18T00:12:07.703Z,139.47
2023-04-18T00:13:07.682Z,138.86
2023-04-18T00:14:07.662Z,137.76
2023-04-18T00:15:07.655Z,133.98
2023-04-18T00:16:07.649Z,133.24
2023-04-18T00:17:07.742Z,133.24
2023-04-18T00:18:07.703Z,130.89
2023-04-18T00:19:07.661Z,131.94
2023-04-18T00:20:07.667Z,131.77
2023-04-18T00:21:07.675Z,131.26
2023-04-18T00:22:07.692Z,136.99
2023-04-18T00:23:07.718Z,136.21
2023-04-18T00:24:07.746Z,138.99
2023-04-18T00:25:07.756Z,139.55
2023-04-18T00:26:07.753Z,136.35
2023-04-18T00:27:07.758Z,136.89
2023-04-18T00:28:07.816Z,141.16
2023-04-18T00:29:07.766Z,142.40
2023-04-18T00:30:07.761Z,140.15
2023-04-18T00:31:07.980Z,142.23
2023-04-18T00:32:07.759Z,142.62
2023-04-18T00:33:07.790Z,142.72
2023-04-18T00:34:07.832Z,140.63
2023-04-18T00:35:07.901Z,140.48
2023-04-18T00:36:07.791Z,142.47
2023-04-18T00:37:07.799Z,139.36
2023-04-18T00:38:07.801Z,134.66
2023-04-18T00:39:07.785Z,135.87
2023-04-18T00:40:07.807Z,134.16
2023-04-18T00:41:07.827Z,130.42
2023-04-18T00:42:07.811Z,130.93
2023-04-18T00:43:07.820Z,131.52
2023-04-18T00:44:07.807Z,130.50
2023-04-18T00:45:07.838Z,129.70
2023-04-18T00:46:07.892Z,132.37
2023-04-18T00:47:07.890Z,126.20
2023-04-18T00:48:07.957Z,129.34
2023-04-18T00:49:07.942Z,127.82
2023-04-18T00:50:07.945Z,132.05
2023-04-18T00:51:07.971Z,133.12
2023-04-18T00:52:07.984Z,133.17
2023-04-18T00:53:08.016Z,129.61
2023-04-18T00:54:08.009Z,128.31
2023-04-18T00:55:08.011Z,126.63
2023-04-18T00:56:08.000Z,124.24
2023-04-18T00:57:08.029Z,123.48
2023-04-18T00:58:08.869Z,128.24
2023-04-18T00:59:08.056Z,129.78
2023-04-18T01:00:08.058Z,127.69
2023-04-18T01:01:08.125Z,124.55
2023-04-18T01:02:08.179Z,124.59
2023-04-18T01:03:08.298Z,126.44
2023-04-18T01:04:08.196Z,126.08
2023-04-18T01:05:08.143Z,127.02
2023-04-18T01:06:08.136Z,126.21
2023-04-18T01:07:08.146Z,125.36
2023-04-18T01:08:08.220Z,126.73
2023-04-18T01:09:08.173Z,127.24
2023-04-18T01:10:08.165Z,127.68
2023-04-18T01:11:08.155Z,130.30
2023-04-18T01:12:08.161Z,134.15
2023-04-18T01:13:08.152Z,133.45
2023-04-18T01:14:08.166Z,132.40
2023-04-18T01:15:08.158Z,127.73
2023-04-18T01:16:08.196Z,124.87
2023-04-18T01:17:08.163Z,127.78
2023-04-18T01:18:08.191Z,127.56
2023-04-18T01:19:08.214Z,128.49
2023-04-18T01:20:08.245Z,126.96
2023-04-18T01:21:08.239Z,128.73
2023-04-18T01:22:08.243Z,125.66
2023-04-18T01:23:08.257Z,123.49
2023-04-18T01:24:08.259Z,120.61
2023-04-18T01:25:08.224Z,124.38
2023-04-18T01:26:08.220Z,125.26
2023-04-18T01:27:08.306Z,126.26
2023-04-18T01:28:08.207Z,130.44
2023-04-18T01:29:08.219Z,125.19
2023-04-18T01:30:08.234Z,130.06
2023-04-18T01:31:08.242Z,130.11
2023-04-18T01:32:08.206Z,130.72
2023-04-18T01:33:08.180Z,132.29
2023-04-18T01:34:08.195Z,132.88
2023-04-18T01:35:08.182Z,136.14
2023-04-18T01:36:08.150Z,132.61
2023-04-18T01:37:08.144Z,135.78
2023-04-18T01:38:08.155Z,133.87
2023-04-18T01:39:08.212Z,133.58
2023-04-18T01:40:08.171Z,135.08
2023-04-18T01:41:08.190Z,130.18
2023-04-18T01:42:08.205Z,125.27
2023-04-18T01:43:08.223Z,126.03
2023-04-18T01:44:08.248Z,124.73
2023-04-18T01:45:08.261Z,124.60
2023-04-18T01:46:08.315Z,124.19
2023-04-18T01:47:08.291Z,122.83
2023-04-18T01:48:08.296Z,122.33
2023-04-18T01:49:08.285Z,121.85
2023-04-18T01:50:08.300Z,118.85
2023-04-18T01:51:08.307Z,118.81
2023-04-18T01:52:08.321Z,117.23
2023-04-18T01:53:08.323Z,119.58
2023-04-18T01:54:08.342Z,119.05
2023-04-18T01:55:08.346Z,118.81
2023-04-18T01:56:08.362Z,119.44
2023-04-18T01:57:08.373Z,118.54
2023-04-18T01:58:08.398Z,122.48
2023-04-18T01:59:08.407Z,119.50
2023-04-18T02:00:08.427Z,122.13
2023-04-18T02:01:08.518Z,125.51
2023-04-18T02:02:08.571Z,124.74
2023-04-18T02:03:08.541Z,125.10
2023-04-18T02:04:08.513Z,122.60
2023-04-18T02:05:08.530Z,119.71
2023-04-18T02:06:08.465Z,120.79
2023-04-18T02:07:08.499Z,122.80
2023-04-18T02:08:08.500Z,123.97
2023-04-18T02:09:08.522Z,125.71
2023-04-18T02:10:08.522Z,124.77
2023-04-18T02:11:08.522Z,125.29
2023-04-18T02:12:08.572Z,128.21
2023-04-18T02:13:08.569Z,123.35
2023-04-18T02:14:08.578Z,120.93
2023-04-18T02:15:08.629Z,117.68
2023-04-18T02:16:08.658Z,117.70
2023-04-18T02:17:08.665Z,120.08
2023-04-18T02:18:08.701Z,120.95
2023-04-18T02:19:08.739Z,126.91
2023-04-18T02:20:08.748Z,126.25
2023-04-18T02:21:08.767Z,124.97
2023-04-18T02:22:08.802Z,120.98
2023-04-18T02:23:08.816Z,119.47
2023-04-18T02:24:08.856Z,117.27
2023-04-18T02:25:08.868Z,115.48
2023-04-18T02:26:08.911Z,113.14
2023-04-18T02:27:08.943Z,113.96
2023-04-18T02:28:08.956Z,117.58
2023-04-18T02:29:08.967Z,120.05
2023-04-18T02:30:08.980Z,124.62
2023-04-18T02:31:09.006Z,121.80
2023-04-18T02:32:09.148Z,117.76
2023-04-18T02:33:09.055Z,115.07
2023-04-18T02:34:09.058Z,120.21
2023-04-18T02:35:09.068Z,119.93
2023-04-18T02:36:09.102Z,119.86
2023-04-18T02:37:09.125Z,117.95
2023-04-18T02:38:09.133Z,120.45
2023-04-18T02:39:09.146Z,123.20
2023-04-18T02:40:09.180Z,119.19
2023-04-18T02:41:09.200Z,116.15
2023-04-18T02:42:09.209Z,116.67
2023-04-18T02:43:09.220Z,115.91
2023-04-18T02:44:09.238Z,117.09
2023-04-18T02:45:09.246Z,120.68
2023-04-18T02:46:09.265Z,121.96
2023-04-18T02:47:09.228Z,117.23
2023-04-18T02:48:09.288Z,120.12
2023-04-18T02:49:09.246Z,115.69
2023-04-18T02:50:09.259Z,116.00
2023-04-18T02:51:09.275Z,118.11
2023-04-18T02:52:09.285Z,115.40
2023-04-18T02:53:09.305Z,115.09
2023-04-18T02:54:09.316Z,116.98
2023-04-18T02:55:09.344Z,110.38
2023-04-18T02:56:09.352Z,111.48
2023-04-18T02:57:09.349Z,110.67
2023-04-18T02:58:09.348Z,112.57
2023-04-18T02:59:09.366Z,116.28
2023-04-18T03:00:09.380Z,120.23
2023-04-18T03:01:09.432Z,120.85
2023-04-18T03:02:09.465Z,119.26
2023-04-18T03:03:09.471Z,114.17
2023-04-18T03:04:09.428Z,113.82
2023-04-18T03:05:09.460Z,111.23
2023-04-18T03:06:09.455Z,112.26
2023-04-18T03:07:09.478Z,108.57
2023-04-18T03:08:09.498Z,107.69
2023-04-18T03:09:09.502Z,109.38
2023-04-18T03:10:09.550Z,108.19
2023-04-18T03:11:09.538Z,108.69
2023-04-18T03:12:09.545Z,108.07
2023-04-18T03:13:09.556Z,106.08
2023-04-18T03:14:09.572Z,107.24
2023-04-18T03:15:09.571Z,105.46
2023-04-18T03:16:09.610Z,106.53
2023-04-18T03:17:09.568Z,105.98
2023-04-18T03:18:09.588Z,104.21
2023-04-18T03:19:09.623Z,102.71
2023-04-18T03:20:09.651Z,103.59
2023-04-18T03:21:09.660Z,103.30
2023-04-18T03:22:09.681Z,102.62
2023-04-18T03:23:09.715Z,101.22
2023-04-18T03:24:11.956Z,102.85
2023-04-18T03:25:09.803Z,101.14
2023-04-18T03:26:09.848Z,100.90
2023-04-18T03:27:09.838Z,102.86
2023-04-18T03:28:09.855Z,100.58
2023-04-18T03:29:09.879Z,100.12
2023-04-18T03:30:09.915Z,99.80
2023-04-18T03:31:09.925Z,99.72
2023-04-18T03:32:09.925Z,98.96
2023-04-18T03:33:09.930Z,101.06
2023-04-18T03:34:09.959Z,98.41
2023-04-18T03:35:09.972Z,100.05
2023-04-18T03:36:09.960Z,98.89
2023-04-18T03:37:09.978Z,96.97
2023-04-18T03:38:09.996Z,97.71
2023-04-18T03:39:10.008Z,98.25
2023-04-18T03:40:10.019Z,95.45
2023-04-18T03:41:10.114Z,94.77
2023-04-18T03:42:10.033Z,95.14
2023-04-18T03:43:10.033Z,97.17
2023-04-18T03:44:10.052Z,94.32
2023-04-18T03:45:10.077Z,95.80
2023-04-18T03:46:10.126Z,96.75
2023-04-18T03:47:10.118Z,96.19
2023-04-18T03:48:10.118Z,94.30
2023-04-18T03:49:10.135Z,94.05
2023-04-18T03:50:10.140Z,94.91
2023-04-18T03:51:10.144Z,91.78
2023-04-18T03:52:10.160Z,92.66
2023-04-18T03:53:10.144Z,94.19
2023-04-18T03:54:10.177Z,91.54
2023-04-18T03:55:10.173Z,93.38
2023-04-18T03:56:10.186Z,90.57
2023-04-18T03:57:10.192Z,92.58
2023-04-18T03:58:10.184Z,90.35
2023-04-18T03:59:10.222Z,92.75
2023-04-18T04:00:10.227Z,90.97
2023-04-18T04:01:10.235Z,92.10
2023-04-18T04:02:10.302Z,89.71
2023-04-18T04:03:10.366Z,92.64
2023-04-18T04:04:10.305Z,91.16
2023-04-18T04:05:10.428Z,94.05
2023-04-18T04:06:10.311Z,90.84
2023-04-18T04:07:10.338Z,91.10
2023-04-18T04:08:10.354Z,91.32
2023-04-18T04:09:10.369Z,93.46
2023-04-18T04:10:10.403Z,91.57
2023-04-18T04:11:10.419Z,89.83
2023-04-18T04:12:10.421Z,89.43
2023-04-18T04:13:10.427Z,87.59
2023-04-18T04:14:10.448Z,90.63
2023-04-18T04:15:10.449Z,90.15
2023-04-18T04:16:10.466Z,89.38
2023-04-18T04:17:10.443Z,92.16
2023-04-18T04:18:10.627Z,89.49
2023-04-18T04:19:10.451Z,89.71
2023-04-18T04:20:10.438Z,90.60
2023-04-18T04:21:10.459Z,91.57
2023-04-18T04:22:10.449Z,88.99
2023-04-18T04:23:10.467Z,92.70
2023-04-18T04:24:10.474Z,90.04
2023-04-18T04:25:10.494Z,88.97
2023-04-18T04:26:10.517Z,87.95
2023-04-18T04:27:10.535Z,90.67
2023-04-18T04:28:10.546Z,87.36
2023-04-18T04:29:10.543Z,88.89
2023-04-18T04:30:13.153Z,91.83
2023-04-18T04:31:10.543Z,89.36
2023-04-18T04:32:10.483Z,91.41
2023-04-18T04:33:10.411Z,89.47
2023-04-18T04:34:10.376Z,90.34
2023-04-18T04:35:10.322Z,88.81
2023-04-18T04:36:10.268Z,90.09
2023-04-18T04:37:10.237Z,87.85
2023-04-18T04:38:10.181Z,92.30
2023-04-18T04:39:10.144Z,91.57
2023-04-18T04:40:10.111Z,88.39
2023-04-18T04:41:10.057Z,89.17
2023-04-18T04:42:10.016Z,91.54
2023-04-18T04:43:09.962Z,90.94
2023-04-18T04:44:09.935Z,91.22
2023-04-18T04:45:09.868Z,88.37
2023-04-18T04:46:09.873Z,88.26
2023-04-18T04:47:09.816Z,91.47
2023-04-18T04:48:09.759Z,89.18
2023-04-18T04:49:09.709Z,88.09
2023-04-18T04:50:09.657Z,90.59
2023-04-18T04:51:09.610Z,88.87
2023-04-18T04:52:09.563Z,90.35
2023-04-18T04:53:09.516Z,89.57
2023-04-18T04:54:09.476Z,90.82
2023-04-18T04:55:09.443Z,91.15
2023-04-18T04:56:09.397Z,88.70
2023-04-18T04:57:09.345Z,89.49
2023-04-18T04:58:09.291Z,88.68
2023-04-18T04:59:09.252Z,90.65
2023-04-18T05:00:09.206Z,90.22
2023-04-18T05:01:09.262Z,91.42
2023-04-18T05:02:09.216Z,89.15
2023-04-18T05:03:09.305Z,88.41
2023-04-18T05:04:09.164Z,90.68
2023-04-18T05:05:09.001Z,94.73
2023-04-18T05:06:08.948Z,98.68
2023-04-18T05:07:08.911Z,107.41
2023-04-18T05:08:08.889Z,120.73
2023-04-18T05:09:08.858Z,114.13
2023-04-18T05:10:08.823Z,115.77
2023-04-18T05:11:08.783Z,111.45
2023-04-18T05:12:08.801Z,108.99
2023-04-18T05:13:08.841Z,110.58
2023-04-18T05:14:08.853Z,115.52
2023-04-18T05:15:08.866Z,120.46
2023-04-18T05:16:08.835Z,117.54
2023-04-18T05:17:08.966Z,124.44
2023-04-18T05:18:08.810Z,126.48
2023-04-18T05:19:08.752Z,125.56
2023-04-18T05:20:08.718Z,130.09
2023-04-18T05:21:08.702Z,131.83
2023-04-18T05:22:08.670Z,134.00
2023-04-18T05:23:10.502Z,130.60
2023-04-18T05:24:08.642Z,136.45
2023-04-18T05:25:09.490Z,142.58
2023-04-18T05:26:08.568Z,142.84
2023-04-18T05:27:09.491Z,144.19
2023-04-18T05:28:08.582Z,148.45
2023-04-18T05:29:08.500Z,154.21
2023-04-18T05:30:08.475Z,143.55
2023-04-18T05:31:08.523Z,146.85
2023-04-18T05:32:08.420Z,153.16
2023-04-18T05:33:08.416Z,162.78
2023-04-18T05:34:08.337Z,167.73
2023-04-18T05:35:08.333Z,171.65
2023-04-18T05:36:08.265Z,162.34
2023-04-18T05:37:08.221Z,148.26
2023-04-18T05:38:08.185Z,139.97
2023-04-18T05:39:08.238Z,140.63
2023-04-18T05:40:08.140Z,134.66
2023-04-18T05:41:08.105Z,134.13
2023-04-18T05:42:08.055Z,138.54
2023-04-18T05:43:08.025Z,147.18
2023-04-18T05:44:07.996Z,160.34
2023-04-18T05:45:07.958Z,168.55
2023-04-18T05:46:07.944Z,172.75
2023-04-18T05:47:07.876Z,175.53
2023-04-18T05:48:07.934Z,181.59
2023-04-18T05:49:07.801Z,185.18
2023-04-18T05:50:07.761Z,188.08
2023-04-18T05:51:07.815Z,184.27
2023-04-18T05:52:07.764Z,176.35
2023-04-18T05:53:07.792Z,170.98
2023-04-18T05:54:07.830Z,176.48
2023-04-18T05:55:07.850Z,179.60
2023-04-18T05:56:07.876Z,181.75
2023-04-18T05:57:07.918Z,181.79
2023-04-18T05:58:07.936Z,166.59
2023-04-18T05:59:08.432Z,146.63
2023-04-18T06:00:07.896Z,131.13
2023-04-18T06:01:07.902Z,121.89
2023-04-18T06:02:07.966Z,123.27
2023-04-18T06:03:10.684Z,121.34
2023-04-18T06:04:07.982Z,121.82
2023-04-18T06:05:08.076Z,131.93
2023-04-18T06:06:07.772Z,144.74
2023-04-18T06:07:07.731Z,151.20
2023-04-18T06:08:07.694Z,151.74
2023-04-18T06:09:07.643Z,154.47
2023-04-18T06:10:07.624Z,161.80
2023-04-18T06:11:09.562Z,171.16
2023-04-18T06:12:07.529Z,188.16
2023-04-18T06:13:08.041Z,191.98
2023-04-18T06:14:07.438Z,192.85
2023-04-18T06:15:07.402Z,192.63
2023-04-18T06:16:07.409Z,194.30
2023-04-18T06:17:07.327Z,195.43
2023-04-18T06:18:07.400Z,196.36
2023-04-18T06:19:07.283Z,196.63
2023-04-18T06:20:07.252Z,197.26
2023-04-18T06:21:07.241Z,197.65
2023-04-18T06:22:07.191Z,198.32
2023-04-18T06:23:07.147Z,201.14
2023-04-18T06:24:07.098Z,200.23
2023-04-18T06:25:07.077Z,203.71
2023-04-18T06:26:09.049Z,204.70
2023-04-18T06:27:09.324Z,205.81
2023-04-18T06:28:07.969Z,206.22
2023-04-18T06:29:07.078Z,200.70
2023-04-18T06:30:06.891Z,189.23
2023-04-18T06:31:07.528Z,181.36
2023-04-18T06:32:06.843Z,173.48
2023-04-18T06:33:06.822Z,175.26
2023-04-18T06:34:06.786Z,175.19
2023-04-18T06:35:10.038Z,174.73
2023-04-18T06:36:06.711Z,177.95
2023-04-18T06:37:06.704Z,180.17
2023-04-18T06:38:07.030Z,178.87
2023-04-18T06:39:06.610Z,178.98
2023-04-18T06:40:06.562Z,178.88
2023-04-18T06:41:06.542Z,179.01
2023-04-18T06:42:06.476Z,179.42
2023-04-18T06:43:09.574Z,182.03
2023-04-18T06:44:06.380Z,187.73
2023-04-18T06:45:07.038Z,191.37
2023-04-18T06:46:06.377Z,189.31
2023-04-18T06:47:06.264Z,194.77
2023-04-18T06:48:06.305Z,191.65
2023-04-18T06:49:08.060Z,182.08
2023-04-18T06:50:06.169Z,186.70
2023-04-18T06:51:06.099Z,180.26
2023-04-18T06:52:06.059Z,188.27
2023-04-18T06:53:06.022Z,192.83
2023-04-18T06:54:07.560Z,196.60
2023-04-18T06:55:05.943Z,195.61
2023-04-18T06:56:05.902Z,202.12
2023-04-18T06:57:05.899Z,202.62
2023-04-18T06:58:05.860Z,204.17
2023-04-18T06:59:05.898Z,205.86
2023-04-18T07:00:05.917Z,207.00
2023-04-18T07:01:06.921Z,207.32
2023-04-18T07:02:05.839Z,207.87
2023-04-18T07:03:07.079Z,208.58
2023-04-18T07:04:05.882Z,212.21
2023-04-18T07:05:05.707Z,211.41
2023-04-18T07:06:06.550Z,215.92
2023-04-18T07:07:05.751Z,214.40
2023-04-18T07:08:05.754Z,219.62
2023-04-18T07:09:05.707Z,219.86
2023-04-18T07:10:07.506Z,220.71
2023-04-18T07:11:05.628Z,222.22
2023-04-18T07:12:05.593Z,224.15
2023-04-18T07:13:05.564Z,225.61
2023-04-18T07:14:05.528Z,222.86
2023-04-18T07:15:05.644Z,217.74
2023-04-18T07:16:05.441Z,213.08
2023-04-18T07:17:05.585Z,206.63
2023-04-18T07:18:05.473Z,202.27
2023-04-18T07:19:05.409Z,202.38
2023-04-18T07:20:05.374Z,194.99
2023-04-18T07:21:05.360Z,191.08
2023-04-18T07:22:06.044Z,185.66
2023-04-18T07:23:05.973Z,181.38
2023-04-18T07:24:05.255Z,191.23
2023-04-18T07:25:05.971Z,203.50
2023-04-18T07:26:05.178Z,206.58
2023-04-18T07:27:05.138Z,211.52
2023-04-18T07:28:05.096Z,218.87
2023-04-18T07:29:05.053Z,226.82
2023-04-18T07:30:05.551Z,230.57
2023-04-18T07:31:05.006Z,221.83
2023-04-18T07:32:06.869Z,203.85
2023-04-18T07:33:04.968Z,195.56
2023-04-18T07:34:04.895Z,182.27
2023-04-18T07:35:04.850Z,168.02
2023-04-18T07:36:04.856Z,168.78
2023-04-18T07:37:04.828Z,162.70
2023-04-18T07:38:04.728Z,167.85
2023-04-18T07:39:04.698Z,178.79
2023-04-18T07:40:04.654Z,175.10
2023-04-18T07:41:04.627Z,178.18
2023-04-18T07:42:04.600Z,178.88
2023-04-18T07:43:04.555Z,179.83
2023-04-18T07:44:04.508Z,181.75
2023-04-18T07:45:04.480Z,187.78
2023-04-18T07:46:04.467Z,187.44
2023-04-18T07:47:04.447Z,191.26
2023-04-18T07:48:04.413Z,195.15
2023-04-18T07:49:04.332Z,194.90
2023-04-18T07:50:05.065Z,200.45
2023-04-18T07:51:04.257Z,203.44
2023-04-18T07:52:04.231Z,205.57
2023-04-18T07:53:04.182Z,201.87
2023-04-18T07:54:04.152Z,203.55
2023-04-18T07:55:04.108Z,205.90
2023-04-18T07:56:05.068Z,206.93
2023-04-18T07:57:05.598Z,210.91
2023-04-18T07:58:03.986Z,207.36
2023-04-18T07:59:03.950Z,204.53
2023-04-18T08:00:04.494Z,203.44
2023-04-18T08:01:03.883Z,204.00
2023-04-18T08:02:03.859Z,207.21
2023-04-18T08:04:03.928Z,204.35
2023-04-18T08:05:03.806Z,202.77
2023-04-18T08:06:03.697Z,201.06
2023-04-18T08:07:03.653Z,201.20
2023-04-18T08:08:03.614Z,201.65
2023-04-18T08:09:03.572Z,202.27
2023-04-18T08:10:03.553Z,209.84
2023-04-18T08:11:05.092Z,222.08
2023-04-18T08:12:03.460Z,214.91
2023-04-18T08:13:03.449Z,205.98
2023-04-18T08:14:03.396Z,208.72
2023-04-18T08:15:03.372Z,215.72
2023-04-18T08:16:03.364Z,218.48
2023-04-18T08:17:04.077Z,217.14
2023-04-18T08:18:03.623Z,217.28
2023-04-18T08:19:03.334Z,217.55
2023-04-18T08:20:03.195Z,217.27
2023-04-18T08:21:03.165Z,207.52
2023-04-18T08:22:03.141Z,205.30
2023-04-18T08:23:07.958Z,201.90
2023-04-18T08:24:04.078Z,202.18
2023-04-18T08:25:05.560Z,191.22
2023-04-18T08:26:02.955Z,190.38
2023-04-18T08:27:02.913Z,190.51
2023-04-18T08:28:02.884Z,185.81
2023-04-18T08:29:02.837Z,188.14
2023-04-18T08:30:02.781Z,188.45
2023-04-18T08:31:02.722Z,189.48
2023-04-18T08:32:05.697Z,191.81
2023-04-18T08:33:02.750Z,196.54
2023-04-18T08:34:04.523Z,200.53
2023-04-18T08:35:02.688Z,188.80
2023-04-18T08:36:02.692Z,190.68
2023-04-18T08:37:02.720Z,194.74
2023-04-18T08:38:02.723Z,198.20
2023-04-18T08:39:02.723Z,204.60
2023-04-18T08:40:02.764Z,206.75
2023-04-18T08:41:02.738Z,202.37
2023-04-18T08:42:02.765Z,201.47
2023-04-18T08:43:02.781Z,199.67
2023-04-18T08:44:02.815Z,198.67
2023-04-18T08:45:02.869Z,197.77
2023-04-18T08:46:02.921Z,198.05
2023-04-18T08:47:02.889Z,197.02
2023-04-18T08:48:03.010Z,196.17
2023-04-18T08:49:02.925Z,197.27
2023-04-18T08:50:02.893Z,197.27
2023-04-18T08:51:02.999Z,196.50
2023-04-18T08:52:02.809Z,193.88
2023-04-18T08:53:02.767Z,193.14
2023-04-18T08:54:02.723Z,191.40
2023-04-18T08:55:02.712Z,190.37
2023-04-18T08:56:02.664Z,185.46
2023-04-18T08:57:02.611Z,184.02
2023-04-18T08:58:02.603Z,182.74
2023-04-18T08:59:02.626Z,175.50
2023-04-18T09:00:02.628Z,177.07
2023-04-18T09:01:02.651Z,177.23
2023-04-18T09:02:02.629Z,177.90
2023-04-18T09:03:02.733Z,177.35
2023-04-18T09:04:02.512Z,177.76
2023-04-18T09:05:02.408Z,175.57
2023-04-18T09:06:02.612Z,176.52
2023-04-18T09:07:02.346Z,172.33
2023-04-18T09:08:02.290Z,172.34
2023-04-18T09:09:02.274Z,172.52
2023-04-18T09:10:02.276Z,170.88
2023-04-18T09:11:02.169Z,172.28
2023-04-18T09:12:02.188Z,170.34
2023-04-18T09:13:02.236Z,170.24
2023-04-18T09:14:02.264Z,168.66
2023-04-18T09:15:06.119Z,169.32
2023-04-18T09:16:02.256Z,170.40
2023-04-18T09:17:02.268Z,168.49
2023-04-18T09:18:02.227Z,168.15
2023-04-18T09:19:02.151Z,168.31
2023-04-18T09:20:02.175Z,168.62
2023-04-18T09:21:02.141Z,168.97
2023-04-18T09:22:02.053Z,169.95
2023-04-18T09:23:02.007Z,171.76
2023-04-18T09:24:01.974Z,168.27
2023-04-18T09:25:01.947Z,156.96
2023-04-18T09:26:01.892Z,132.26
2023-04-18T09:27:02.846Z,125.99
2023-04-18T09:28:01.826Z,132.38
2023-04-18T09:29:01.747Z,133.53
2023-04-18T09:30:01.755Z,144.11
2023-04-18T09:31:01.831Z,156.57
2023-04-18T09:32:01.715Z,157.81
2023-04-18T09:33:01.698Z,159.78
2023-04-18T09:34:01.498Z,157.74
2023-04-18T09:35:03.404Z,162.13
2023-04-18T09:36:01.441Z,160.61
2023-04-18T09:37:01.385Z,107.59
2023-04-18T09:38:01.312Z,19.98
2023-04-18T09:39:02.040Z,0.00
2023-04-18T09:40:01.235Z,0.00
2023-04-18T09:41:01.201Z,0.00
2023-04-18T09:42:01.181Z,0.00
2023-04-18T09:43:01.164Z,0.00
2023-04-18T09:44:01.120Z,0.00
2023-04-18T09:45:01.193Z,0.00
2023-04-18T09:46:01.162Z,0.00
2023-04-18T09:47:01.101Z,0.00
2023-04-18T09:48:01.122Z,0.00
2023-04-18T09:49:01.073Z,0.00
2023-04-18T09:50:01.058Z,0.00
2023-04-18T09:51:01.051Z,0.00
2023-04-18T09:52:01.033Z,0.00
2023-04-18T09:53:01.002Z,11.34
2023-04-18T09:54:00.969Z,25.04
2023-04-18T09:55:00.949Z,29.68
2023-04-18T09:56:00.911Z,35.37
2023-04-18T09:57:00.891Z,44.48
2023-04-18T09:58:00.812Z,51.45
2023-04-18T09:59:00.773Z,57.80
2023-04-18T10:00:01.150Z,65.44
2023-04-18T10:01:00.690Z,78.84
2023-04-18T10:02:00.716Z,82.08
2023-04-18T10:03:00.710Z,85.50
2023-04-18T10:04:00.697Z,87.99
2023-04-18T10:05:00.648Z,94.32
2023-04-18T10:06:00.507Z,97.02
2023-04-18T10:07:00.466Z,100.07
2023-04-18T10:08:00.419Z,108.12
2023-04-18T10:09:00.387Z,112.86
2023-04-18T10:10:00.350Z,122.41
2023-04-18T10:11:00.401Z,124.06
2023-04-18T10:12:00.262Z,128.84
2023-04-18T10:13:00.266Z,132.05
2023-04-18T10:14:00.190Z,136.00
2023-04-18T10:15:00.168Z,143.39
2023-04-18T10:16:01.094Z,147.82
2023-04-18T10:17:00.132Z,153.34
2023-04-18T10:18:05.395Z,156.12
2023-04-18T10:19:01.011Z,156.33
2023-04-18T10:19:59.977Z,157.25
2023-04-18T10:21:00.628Z,159.60
2023-04-18T10:21:59.873Z,164.02
2023-04-18T10:23:01.596Z,168.93
2023-04-18T10:23:59.766Z,172.58
2023-04-18T10:24:59.712Z,174.10
2023-04-18T10:25:59.681Z,174.92
2023-04-18T10:26:59.676Z,175.82
2023-04-18T10:27:59.678Z,179.32
2023-04-18T10:28:59.685Z,181.47
2023-04-18T10:29:59.689Z,182.90
2023-04-18T10:30:59.728Z,183.88
2023-04-18T10:31:59.845Z,185.67
2023-04-18T10:32:59.790Z,186.46
2023-04-18T10:34:05.320Z,186.87
2023-04-18T10:35:00.733Z,186.94
2023-04-18T10:35:59.662Z,187.30
2023-04-18T10:36:59.630Z,187.93
2023-04-18T10:37:59.624Z,189.23
2023-04-18T10:38:59.537Z,191.05
2023-04-18T10:39:59.505Z,192.16
2023-04-18T10:40:59.448Z,189.63
2023-04-18T10:41:59.410Z,189.34
2023-04-18T10:42:59.402Z,191.79
2023-04-18T10:43:59.411Z,195.04
2023-04-18T10:44:59.431Z,196.52
2023-04-18T10:45:59.526Z,198.44
2023-04-18T10:46:59.474Z,198.73
2023-04-18T10:48:00.139Z,199.49
2023-04-18T10:48:59.505Z,200.59
2023-04-18T10:49:59.522Z,201.59
2023-04-18T10:50:59.544Z,200.74
2023-04-18T10:51:59.577Z,201.04
2023-04-18T10:52:59.594Z,202.03
2023-04-18T10:53:59.584Z,201.61
2023-04-18T10:54:59.570Z,201.72
2023-04-18T10:55:59.594Z,203.34
2023-04-18T10:56:59.625Z,204.32
2023-04-18T10:57:59.624Z,206.16
2023-04-18T10:58:59.636Z,205.74
2023-04-18T10:59:59.642Z,205.70
2023-04-18T11:00:59.685Z,203.37
2023-04-18T11:01:59.696Z,203.18
2023-04-18T11:02:59.798Z,203.31
2023-04-18T11:03:59.802Z,203.37
2023-04-18T11:04:59.666Z,204.87
2023-04-18T11:05:59.670Z,205.03
2023-04-18T11:06:59.673Z,208.67
2023-04-18T11:07:59.620Z,208.54
2023-04-18T11:08:59.618Z,207.93
2023-04-18T11:09:59.579Z,209.45
2023-04-18T11:10:59.582Z,214.72
2023-04-18T11:11:59.577Z,213.51
2023-04-18T11:12:59.605Z,213.02
2023-04-18T11:13:59.629Z,211.81
2023-04-18T11:14:59.639Z,213.68
2023-04-18T11:15:59.674Z,214.49
2023-04-18T11:16:59.740Z,214.56
2023-04-18T11:17:59.742Z,216.59
2023-04-18T11:18:59.705Z,218.42
2023-04-18T11:19:59.713Z,219.33
2023-04-18T11:20:59.725Z,219.65
2023-04-18T11:21:59.802Z,220.20
2023-04-18T11:22:59.757Z,220.23
2023-04-18T11:23:59.745Z,221.55
2023-04-18T11:24:59.742Z,222.68
2023-04-18T11:25:59.781Z,223.90
2023-04-18T11:26:59.793Z,223.97
2023-04-18T11:27:59.847Z,224.59
2023-04-18T11:28:59.822Z,226.48
2023-04-18T11:29:59.831Z,228.24
2023-04-18T11:30:59.905Z,228.03
2023-04-18T11:31:59.867Z,229.17
2023-04-18T11:32:59.951Z,233.25
2023-04-18T11:33:59.882Z,235.88
2023-04-18T11:35:00.678Z,238.87
2023-04-18T11:35:59.969Z,240.34
2023-04-18T11:36:59.967Z,241.48
2023-04-18T11:37:59.959Z,241.44
2023-04-18T11:39:00.000Z,242.97
2023-04-18T11:40:00.001Z,243.46
2023-04-18T11:41:00.001Z,245.59
2023-04-18T11:42:00.023Z,246.96
2023-04-18T11:43:00.036Z,246.31
2023-04-18T11:44:00.038Z,246.11
2023-04-18T11:45:00.069Z,246.56
2023-04-18T11:46:00.133Z,249.68
2023-04-18T11:47:00.170Z,249.29
2023-04-18T11:48:00.100Z,248.62
2023-04-18T11:49:00.042Z,249.73
2023-04-18T11:50:00.056Z,249.34
2023-04-18T11:51:00.037Z,246.14
2023-04-18T11:52:00.059Z,245.37
2023-04-18T11:53:00.023Z,243.51
2023-04-18T11:54:00.055Z,243.06
2023-04-18T11:55:00.066Z,239.49
2023-04-18T11:56:00.113Z,238.09
2023-04-18T11:57:00.112Z,237.42
2023-04-18T11:58:01.106Z,239.38
2023-04-18T11:59:00.093Z,239.45
2023-04-18T12:00:00.165Z,240.49
2023-04-18T12:01:00.158Z,238.11
2023-04-18T12:02:14.410Z,237.71
2023-04-18T12:03:01.178Z,237.71
2023-04-18T12:04:00.209Z,237.01
2023-04-18T12:05:00.255Z,235.41
2023-04-18T12:06:00.016Z,233.76
2023-04-18T12:06:59.865Z,234.11
2023-04-18T12:07:59.817Z,235.55
2023-04-18T12:09:00.629Z,234.71
2023-04-18T12:09:59.706Z,233.13
2023-04-18T12:10:59.672Z,232.97
2023-04-18T12:11:59.692Z,233.76
2023-04-18T12:12:59.690Z,233.15
2023-04-18T12:13:59.713Z,233.09
2023-04-18T12:14:59.793Z,233.47
2023-04-18T12:15:59.785Z,232.74
2023-04-18T12:16:59.735Z,230.89
2023-04-18T12:17:59.782Z,231.86
2023-04-18T12:18:59.735Z,231.12
2023-04-18T12:20:00.692Z,230.61
2023-04-18T12:20:59.738Z,230.82
2023-04-18T12:21:59.757Z,229.19
2023-04-18T12:22:59.764Z,229.82
2023-04-18T12:23:59.763Z,229.67
2023-04-18T12:24:59.764Z,229.36
2023-04-18T12:25:59.790Z,229.13
2023-04-18T12:27:00.687Z,229.60
2023-04-18T12:27:59.801Z,228.52
2023-04-18T12:29:00.738Z,228.57
2023-04-18T12:29:59.677Z,228.67
2023-04-18T12:30:59.677Z,228.52
2023-04-18T12:31:59.652Z,229.13
2023-04-18T12:32:59.941Z,229.32